createdAt,value
2023-05-15T00:01:22.015Z,61.21
2023-05-15T00:03:49.268Z,61.04
2023-05-15T00:06:16.201Z,61.19
2023-05-15T00:08:43.255Z,61.34
2023-05-15T00:11:10.199Z,61.77
2023-05-15T00:13:38.864Z,62.22
2023-05-15T00:16:09.627Z,62.05
2023-05-15T00:18:36.628Z,62.11
2023-05-15T00:21:03.586Z,62.21
2023-05-15T00:23:30.822Z,61.84
2023-05-15T00:25:57.811Z,61.80
2023-05-15T00:28:25.079Z,62.12
2023-05-15T00:30:52.627Z,62.07
2023-05-15T00:33:19.746Z,62.32
2023-05-15T00:35:46.775Z,62.27
2023-05-15T00:38:13.902Z,62.18
2023-05-15T00:40:41.841Z,61.91
2023-05-15T00:43:08.954Z,61.89
2023-05-15T00:45:39.514Z,61.93
2023-05-15T00:48:06.743Z,62.00
2023-05-15T00:50:33.661Z,61.85
2023-05-15T00:53:01.074Z,61.93
2023-05-15T00:55:29.415Z,62.06
2023-05-15T00:57:58.424Z,61.97
2023-05-15T01:00:25.769Z,62.06
2023-05-15T01:02:54.695Z,61.81
2023-05-15T01:05:21.705Z,61.76
2023-05-15T01:07:53.342Z,61.93
2023-05-15T01:10:21.435Z,62.00
2023-05-15T01:12:51.338Z,62.46
2023-05-15T01:15:18.227Z,62.22
2023-05-15T01:17:45.308Z,62.79
2023-05-15T01:20:13.580Z,62.79
2023-05-15T01:23:03.997Z,62.80
2023-05-15T01:25:41.329Z,63.21
2023-05-15T01:28:15.528Z,63.21
2023-05-15T01:30:43.918Z,63.09
2023-05-15T01:33:33.052Z,62.91
2023-05-15T01:36:06.869Z,63.20
2023-05-15T01:38:47.945Z,62.94
2023-05-15T01:41:19.442Z,63.34
2023-05-15T01:43:49.942Z,63.05
2023-05-15T01:46:19.611Z,63.17
2023-05-15T01:48:48.298Z,63.33
2023-05-15T01:51:15.516Z,63.40
2023-05-15T01:53:43.006Z,63.62
2023-05-15T01:56:12.182Z,63.70
2023-05-15T01:58:40.414Z,63.71
2023-05-15T02:01:09.512Z,63.85
2023-05-15T02:03:36.920Z,63.31
2023-05-15T02:06:05.505Z,63.68
2023-05-15T02:08:33.230Z,63.79
2023-05-15T02:11:01.807Z,64.04
2023-05-15T02:13:32.033Z,64.07
2023-05-15T02:15:58.995Z,63.92
2023-05-15T02:18:28.690Z,63.88
2023-05-15T02:21:01.302Z,64.15
2023-05-15T02:23:28.197Z,63.74
2023-05-15T02:26:27.189Z,64.07
2023-05-15T02:29:22.570Z,63.88
2023-05-15T02:32:09.078Z,63.88
2023-05-15T02:34:54.574Z,64.18
2023-05-15T02:37:25.611Z,64.38
2023-05-15T02:39:54.843Z,64.48
2023-05-15T02:42:22.491Z,64.46
2023-05-15T02:44:50.178Z,64.90
2023-05-15T02:47:17.812Z,64.71
2023-05-15T02:49:44.818Z,64.86
2023-05-15T02:52:12.765Z,65.02
2023-05-15T02:54:39.762Z,65.17
2023-05-15T02:57:08.417Z,65.05
2023-05-15T02:59:35.698Z,65.14
2023-05-15T03:02:03.854Z,65.16
2023-05-15T03:04:31.311Z,65.55
2023-05-15T03:06:58.242Z,65.43
2023-05-15T03:09:25.805Z,65.34
2023-05-15T03:11:52.672Z,65.35
2023-05-15T03:14:19.578Z,65.21
2023-05-15T03:16:46.507Z,65.09
2023-05-15T03:19:13.451Z,64.91
2023-05-15T03:21:40.436Z,64.85
2023-05-15T03:24:07.675Z,64.94
2023-05-15T03:26:34.547Z,64.74
2023-05-15T03:29:01.680Z,64.93
2023-05-15T03:31:28.660Z,64.99
2023-05-15T03:33:55.753Z,65.04
2023-05-15T03:36:22.874Z,65.46
2023-05-15T03:38:49.827Z,65.31
2023-05-15T03:41:16.860Z,65.29
2023-05-15T03:43:43.784Z,64.77
2023-05-15T03:46:12.468Z,64.61
2023-05-15T03:48:41.276Z,64.78
2023-05-15T03:51:08.471Z,64.78
2023-05-15T03:53:35.447Z,65.06
2023-05-15T03:56:02.426Z,64.97
2023-05-15T03:58:29.820Z,65.17
2023-05-15T04:00:56.708Z,64.98
2023-05-15T04:03:23.622Z,64.90
2023-05-15T04:05:52.264Z,64.63
2023-05-15T04:08:19.113Z,64.81
2023-05-15T04:10:46.039Z,64.84
2023-05-15T04:13:12.877Z,64.94
2023-05-15T04:15:40.491Z,65.04
2023-05-15T04:18:07.496Z,65.28
2023-05-15T04:20:34.528Z,64.94
2023-05-15T04:23:01.548Z,65.28
2023-05-15T04:25:28.515Z,65.43
2023-05-15T04:27:55.456Z,65.65
2023-05-15T04:30:22.702Z,65.86
2023-05-15T04:32:49.676Z,65.80
2023-05-15T04:35:16.592Z,65.61
2023-05-15T04:37:45.998Z,65.71
2023-05-15T04:40:15.107Z,65.67
2023-05-15T04:42:42.331Z,65.89
2023-05-15T04:45:09.641Z,65.46
2023-05-15T04:47:37.112Z,65.58
2023-05-15T04:50:04.429Z,65.60
2023-05-15T04:52:32.506Z,65.63
2023-05-15T04:54:59.354Z,65.67
2023-05-15T04:57:26.761Z,65.51
2023-05-15T04:59:53.820Z,65.70
2023-05-15T05:02:24.218Z,65.44
2023-05-15T05:04:51.313Z,66.16
2023-05-15T05:07:18.138Z,66.22
2023-05-15T05:09:45.218Z,66.22
2023-05-15T05:12:12.742Z,66.20
2023-05-15T05:14:42.433Z,66.24
2023-05-15T05:17:10.339Z,66.33
2023-05-15T05:19:37.408Z,66.21
2023-05-15T05:22:05.973Z,66.66
2023-05-15T05:24:33.554Z,66.47
2023-05-15T05:27:00.579Z,66.47
2023-05-15T05:29:27.907Z,66.60
2023-05-15T05:31:54.998Z,66.51
2023-05-15T05:34:22.560Z,66.44
2023-05-15T05:36:49.934Z,66.90
2023-05-15T05:39:17.498Z,66.94
2023-05-15T05:41:44.913Z,67.09
2023-05-15T05:44:12.150Z,66.93
2023-05-15T05:46:39.055Z,67.34
2023-05-15T05:49:05.988Z,67.27
2023-05-15T05:51:33.265Z,67.30
2023-05-15T05:54:00.198Z,67.47
2023-05-15T05:56:27.041Z,67.28
2023-05-15T05:58:54.574Z,67.41
2023-05-15T06:01:21.419Z,67.63
2023-05-15T06:03:48.387Z,67.57
2023-05-15T06:06:15.785Z,67.59
2023-05-15T06:08:42.672Z,67.78
2023-05-15T06:11:09.496Z,67.45
2023-05-15T06:13:37.170Z,67.61
2023-05-15T06:16:05.292Z,67.72
2023-05-15T06:18:32.197Z,67.68
2023-05-15T06:21:00.610Z,67.53
2023-05-15T06:23:27.609Z,67.93
2023-05-15T06:25:54.485Z,67.90
2023-05-15T06:28:21.481Z,67.35
2023-05-15T06:30:48.621Z,67.12
2023-05-15T06:33:15.982Z,66.82
2023-05-15T06:35:42.900Z,66.65
2023-05-15T06:38:09.789Z,66.56
2023-05-15T06:40:36.696Z,66.42
2023-05-15T06:43:03.998Z,66.45
2023-05-15T06:45:31.600Z,66.34
2023-05-15T06:48:01.414Z,66.07
2023-05-15T06:50:28.951Z,66.15
2023-05-15T06:52:55.989Z,66.08
2023-05-15T06:55:23.272Z,65.72
2023-05-15T06:57:50.333Z,65.48
2023-05-15T07:00:18.658Z,64.73
2023-05-15T07:02:45.540Z,63.79
2023-05-15T07:05:14.560Z,63.54
2023-05-15T07:07:41.806Z,63.38
2023-05-15T07:10:09.408Z,63.57
2023-05-15T07:12:36.311Z,63.27
2023-05-15T07:15:03.397Z,62.92
2023-05-15T07:17:32.360Z,62.20
2023-05-15T07:19:59.449Z,61.57
2023-05-15T07:22:28.257Z,61.52
2023-05-15T07:24:55.146Z,61.50
2023-05-15T07:27:22.129Z,61.26
2023-05-15T07:29:49.133Z,61.30
2023-05-15T07:32:16.236Z,61.12
2023-05-15T07:34:43.182Z,61.04
2023-05-15T07:37:10.195Z,60.57
2023-05-15T07:39:37.124Z,59.86
2023-05-15T07:42:04.202Z,59.42
2023-05-15T07:44:31.080Z,58.50
2023-05-15T07:46:59.899Z,58.27
2023-05-15T07:49:26.892Z,57.94
2023-05-15T07:51:53.801Z,58.03
2023-05-15T07:54:21.063Z,57.87
2023-05-15T07:56:48.009Z,57.52
2023-05-15T07:59:16.608Z,57.34
2023-05-15T08:01:43.798Z,57.44
2023-05-15T08:04:10.874Z,57.13
2023-05-15T08:06:38.644Z,56.60
2023-05-15T08:09:05.634Z,55.93
2023-05-15T08:11:32.705Z,55.98
2023-05-15T08:13:59.731Z,56.55
2023-05-15T08:16:26.731Z,55.97
2023-05-15T08:18:58.524Z,55.48
2023-05-15T08:21:25.630Z,55.38
2023-05-15T08:23:53.723Z,55.63
2023-05-15T08:26:21.571Z,55.45
2023-05-15T08:28:48.628Z,55.78
2023-05-15T08:31:16.220Z,56.00
2023-05-15T08:33:43.155Z,56.08
2023-05-15T08:36:10.297Z,56.35
2023-05-15T08:38:37.492Z,56.64
2023-05-15T08:41:13.026Z,56.39
2023-05-15T08:43:41.728Z,56.40
2023-05-15T08:46:08.894Z,56.60
2023-05-15T08:48:37.711Z,56.92
2023-05-15T08:51:08.675Z,57.26
2023-05-15T08:53:35.667Z,57.33
2023-05-15T08:56:03.172Z,57.41
2023-05-15T08:58:30.314Z,56.81
2023-05-15T09:00:57.796Z,57.14
2023-05-15T09:03:24.853Z,57.06
2023-05-15T09:05:53.398Z,57.19
2023-05-15T09:08:23.012Z,57.33
2023-05-15T09:10:50.176Z,57.91
2023-05-15T09:13:17.538Z,57.74
2023-05-15T09:15:46.927Z,57.68
2023-05-15T09:18:15.668Z,57.83
2023-05-15T09:20:42.734Z,58.08
2023-05-15T09:23:23.938Z,57.86
2023-05-15T09:25:53.987Z,57.70
2023-05-15T09:28:32.026Z,57.70
2023-05-15T09:31:03.127Z,57.62
2023-05-15T09:33:37.877Z,58.13
2023-05-15T09:36:06.593Z,58.24
2023-05-15T09:38:43.437Z,58.30
2023-05-15T09:41:10.580Z,58.45
2023-05-15T09:43:39.023Z,58.50
2023-05-15T09:46:06.735Z,58.80
2023-05-15T09:48:35.173Z,58.77
2023-05-15T09:51:02.495Z,59.25
2023-05-15T09:53:29.829Z,59.64
2023-05-15T09:55:57.085Z,59.38
2023-05-15T09:58:23.957Z,59.79
2023-05-15T10:00:51.000Z,60.34
2023-05-15T10:03:22.104Z,60.23
2023-05-15T10:05:49.278Z,60.70
2023-05-15T10:08:16.821Z,60.83
2023-05-15T10:10:44.169Z,61.24
2023-05-15T10:13:11.591Z,61.31
2023-05-15T10:15:39.377Z,61.53
2023-05-15T10:18:06.714Z,61.79
2023-05-15T10:20:35.788Z,61.85
2023-05-15T10:23:05.065Z,61.50
2023-05-15T10:25:40.572Z,61.56
2023-05-15T10:28:11.557Z,61.45
2023-05-15T10:30:39.166Z,61.87
2023-05-15T10:33:08.036Z,62.03
2023-05-15T10:35:36.571Z,61.38
2023-05-15T10:38:07.328Z,61.21
2023-05-15T10:40:35.140Z,61.58
2023-05-15T10:43:02.143Z,61.71
2023-05-15T10:45:30.321Z,61.34
2023-05-15T10:47:58.485Z,61.38
2023-05-15T10:50:25.675Z,60.50
2023-05-15T10:52:52.860Z,60.59
2023-05-15T10:55:20.755Z,60.49
2023-05-15T10:57:48.101Z,59.33
2023-05-15T11:00:36.664Z,59.15
2023-05-15T11:03:05.254Z,59.46
2023-05-15T11:06:11.134Z,58.94
2023-05-15T11:08:39.410Z,58.32
2023-05-15T11:11:06.512Z,58.02
2023-05-15T11:14:10.636Z,56.74
2023-05-15T11:16:55.747Z,55.22
2023-05-15T11:19:23.572Z,54.74
2023-05-15T11:22:01.263Z,52.74
2023-05-15T11:24:29.666Z,52.09
2023-05-15T11:27:03.858Z,51.60
2023-05-15T11:29:31.897Z,49.89
2023-05-15T11:31:59.908Z,50.02
2023-05-15T11:34:33.842Z,49.48
2023-05-15T11:37:01.408Z,48.65
2023-05-15T11:39:28.984Z,48.76
2023-05-15T11:41:57.115Z,48.49
2023-05-15T11:44:25.040Z,48.53
2023-05-15T11:46:52.285Z,49.05
2023-05-15T11:49:20.463Z,49.00
2023-05-15T11:51:48.795Z,49.17
2023-05-15T11:54:15.784Z,48.67
2023-05-15T11:56:44.817Z,48.45
2023-05-15T11:59:17.880Z,48.15
2023-05-15T12:01:48.764Z,47.47
2023-05-15T12:04:17.122Z,47.22
2023-05-15T12:06:45.173Z,47.58
2023-05-15T12:09:14.961Z,46.94
2023-05-15T12:11:41.804Z,46.99
2023-05-15T12:14:12.316Z,46.58
2023-05-15T12:16:39.193Z,46.54
2023-05-15T12:19:06.382Z,46.82
2023-05-15T12:21:34.774Z,45.71
2023-05-15T12:24:08.244Z,46.23
2023-05-15T12:26:36.179Z,45.90
2023-05-15T12:29:04.000Z,45.45
2023-05-15T12:31:31.049Z,45.97
2023-05-15T12:33:58.099Z,45.86
2023-05-15T12:36:29.882Z,45.61
2023-05-15T12:38:58.394Z,45.36
2023-05-15T12:41:29.479Z,45.47
2023-05-15T12:43:56.313Z,46.01
2023-05-15T12:46:25.101Z,45.51
2023-05-15T12:48:52.268Z,45.15
2023-05-15T12:51:19.204Z,45.46
2023-05-15T12:53:48.055Z,45.43
2023-05-15T12:56:17.774Z,45.55
2023-05-15T12:58:44.784Z,44.90
2023-05-15T13:01:11.733Z,45.39
2023-05-15T13:03:39.152Z,47.15
2023-05-15T13:06:07.444Z,50.38
2023-05-15T13:08:39.779Z,53.97
2023-05-15T13:11:06.661Z,57.08
2023-05-15T13:13:44.548Z,59.00
2023-05-15T13:16:22.934Z,60.91
2023-05-15T13:18:50.267Z,62.44
2023-05-15T13:21:17.919Z,63.75
2023-05-15T13:23:45.082Z,64.37
2023-05-15T13:26:11.983Z,65.03
2023-05-15T13:28:38.917Z,65.42
2023-05-15T13:31:05.923Z,66.23
2023-05-15T13:33:33.228Z,66.21
2023-05-15T13:38:59.306Z,67.24
2023-05-15T13:41:26.639Z,68.25
2023-05-15T13:43:53.549Z,68.59
2023-05-15T13:46:20.517Z,68.89
2023-05-15T13:48:47.382Z,69.63
2023-05-15T13:51:14.262Z,70.08
2023-05-15T13:53:41.067Z,71.01
2023-05-15T13:56:07.960Z,71.40
2023-05-15T13:58:34.861Z,71.54
2023-05-15T14:01:05.000Z,71.78
2023-05-15T14:03:31.963Z,71.51
2023-05-15T14:05:58.880Z,71.36
2023-05-15T14:08:26.063Z,71.54
2023-05-15T14:10:52.984Z,71.82
2023-05-15T14:13:19.864Z,72.36
2023-05-15T14:15:47.209Z,72.69
2023-05-15T14:18:14.117Z,72.84
2023-05-15T14:20:41.008Z,72.97
2023-05-15T14:23:07.825Z,73.49
2023-05-15T14:25:34.663Z,73.34
2023-05-15T14:28:01.506Z,73.66
2023-05-15T14:30:28.629Z,73.85
2023-05-15T14:32:55.578Z,73.62
2023-05-15T14:35:23.523Z,73.49
2023-05-15T14:37:50.682Z,73.52
2023-05-15T14:40:17.607Z,73.41
2023-05-15T14:42:44.491Z,73.32
2023-05-15T14:45:11.566Z,73.20
2023-05-15T14:47:38.720Z,72.63
2023-05-15T14:50:05.959Z,72.86
2023-05-15T14:52:32.772Z,72.81
2023-05-15T14:55:09.196Z,72.71
2023-05-15T14:57:37.626Z,72.07
2023-05-15T15:00:06.842Z,71.86
2023-05-15T15:02:34.265Z,71.63
2023-05-15T15:05:05.273Z,71.61
2023-05-15T15:07:58.344Z,71.86
2023-05-15T15:10:25.471Z,72.34
2023-05-15T15:12:52.680Z,72.83
2023-05-15T15:15:21.206Z,72.85
2023-05-15T15:17:48.883Z,72.85
2023-05-15T15:20:18.481Z,72.64
2023-05-15T15:22:47.079Z,72.83
2023-05-15T15:25:14.315Z,73.38
2023-05-15T15:27:41.424Z,73.28
2023-05-15T15:30:09.255Z,73.67
2023-05-15T15:32:37.232Z,73.53
2023-05-15T15:35:05.131Z,74.03
2023-05-15T15:37:34.556Z,73.92
2023-05-15T15:40:03.648Z,74.31
2023-05-15T15:42:30.750Z,74.50
2023-05-15T15:44:59.757Z,74.17
2023-05-15T15:47:27.001Z,74.49
2023-05-15T15:49:55.149Z,74.21
2023-05-15T15:52:22.680Z,74.50
2023-05-15T15:54:49.732Z,74.19
2023-05-15T15:57:17.713Z,74.36
2023-05-15T15:59:45.181Z,74.38
2023-05-15T16:02:13.133Z,74.47
2023-05-15T16:04:40.978Z,74.03
2023-05-15T16:07:08.435Z,74.33
2023-05-15T16:09:35.692Z,74.72
2023-05-15T16:12:04.090Z,74.84
2023-05-15T16:14:32.308Z,75.22
2023-05-15T16:16:59.409Z,75.06
2023-05-15T16:19:27.608Z,74.96
2023-05-15T16:21:58.030Z,74.98
2023-05-15T16:24:25.105Z,74.86
2023-05-15T16:26:53.028Z,74.80
2023-05-15T16:29:20.233Z,75.03
2023-05-15T16:31:48.108Z,74.87
2023-05-15T16:34:15.454Z,74.65
2023-05-15T16:36:42.501Z,74.84
2023-05-15T16:39:09.376Z,75.18
2023-05-15T16:41:36.443Z,75.48
2023-05-15T16:44:03.685Z,75.08
2023-05-15T16:46:30.650Z,75.49
2023-05-15T16:48:57.566Z,75.46
2023-05-15T16:51:24.529Z,75.34
2023-05-15T16:53:52.787Z,75.87
2023-05-15T16:56:19.734Z,75.65
2023-05-15T16:58:46.669Z,75.72
2023-05-15T17:01:13.833Z,75.52
2023-05-15T17:03:41.372Z,75.69
2023-05-15T17:06:08.368Z,75.87
2023-05-15T17:08:35.199Z,75.75
2023-05-15T17:11:02.206Z,76.04
2023-05-15T17:13:29.116Z,75.99
2023-05-15T17:15:55.991Z,76.05
2023-05-15T17:18:23.336Z,76.56
2023-05-15T17:20:50.252Z,76.20
2023-05-15T17:23:17.120Z,76.31
2023-05-15T17:25:44.108Z,75.95
2023-05-15T17:28:11.055Z,75.73
2023-05-15T17:30:38.052Z,75.37
2023-05-15T17:33:05.041Z,74.95
2023-05-15T17:35:33.214Z,74.95
2023-05-15T17:38:00.436Z,74.40
2023-05-15T17:40:27.324Z,74.05
2023-05-15T17:42:54.174Z,73.58
2023-05-15T17:45:21.261Z,73.21
2023-05-15T17:47:49.504Z,73.23
2023-05-15T17:50:17.071Z,73.30
2023-05-15T17:52:44.418Z,72.95
2023-05-15T17:55:11.850Z,73.59
2023-05-15T17:57:39.988Z,73.46
2023-05-15T18:00:07.798Z,73.70
2023-05-15T18:02:39.290Z,73.14
2023-05-15T18:05:06.636Z,73.21
2023-05-15T18:07:34.822Z,73.25
2023-05-15T18:10:02.907Z,73.30
2023-05-15T18:12:29.964Z,73.19
2023-05-15T18:14:57.703Z,73.48
2023-05-15T18:17:25.347Z,73.66
2023-05-15T18:19:52.520Z,74.29
2023-05-15T18:22:20.441Z,74.54
2023-05-15T18:24:47.395Z,74.30
2023-05-15T18:27:14.318Z,74.64
2023-05-15T18:29:43.840Z,74.54
2023-05-15T18:32:12.278Z,74.67
2023-05-15T18:34:39.120Z,74.70
2023-05-15T18:37:06.258Z,74.53
2023-05-15T18:39:33.516Z,74.65
2023-05-15T18:42:00.668Z,74.53
2023-05-15T18:44:28.709Z,74.49
2023-05-15T18:46:56.081Z,74.17
2023-05-15T18:49:22.987Z,74.35
2023-05-15T18:51:49.861Z,74.03
2023-05-15T18:54:16.850Z,74.00
2023-05-15T18:56:43.928Z,74.16
2023-05-15T18:59:10.753Z,74.26
2023-05-15T19:01:37.801Z,73.97
2023-05-15T19:04:04.906Z,73.96
2023-05-15T19:06:32.290Z,73.62
2023-05-15T19:09:00.629Z,73.98
2023-05-15T19:11:27.692Z,73.85
2023-05-15T19:13:54.797Z,73.76
2023-05-15T19:16:21.766Z,73.62
2023-05-15T19:18:48.647Z,73.71
2023-05-15T19:21:15.979Z,73.63
2023-05-15T19:23:42.820Z,73.52
2023-05-15T19:26:11.105Z,73.60
2023-05-15T19:28:38.044Z,73.78
2023-05-15T19:31:05.264Z,73.58
2023-05-15T19:33:32.157Z,73.85
2023-05-15T19:35:59.038Z,73.52
2023-05-15T19:38:25.975Z,73.66
2023-05-15T19:40:53.389Z,73.65
2023-05-15T19:46:29.477Z,74.26
2023-05-15T19:48:56.437Z,73.98
2023-05-15T19:51:23.467Z,73.87
2023-05-15T19:53:50.436Z,74.11
2023-05-15T19:56:17.762Z,74.57
2023-05-15T19:58:44.672Z,74.76
2023-05-15T20:01:11.591Z,74.83
2023-05-15T20:03:39.454Z,74.84
2023-05-15T20:06:06.504Z,74.94
2023-05-15T20:08:33.813Z,75.37
2023-05-15T20:11:02.158Z,75.43
2023-05-15T20:13:29.294Z,75.50
2023-05-15T20:15:57.505Z,75.98
2023-05-15T20:18:26.096Z,75.95
2023-05-15T20:20:56.092Z,75.69
2023-05-15T20:23:22.965Z,76.10
2023-05-15T20:25:50.580Z,76.10
2023-05-15T20:28:18.082Z,76.39
2023-05-15T20:30:47.589Z,76.58
2023-05-15T20:33:14.853Z,76.44
2023-05-15T20:35:43.662Z,76.34
2023-05-15T20:38:10.764Z,75.98
2023-05-15T20:40:38.266Z,76.32
2023-05-15T20:43:17.018Z,76.35
2023-05-15T20:46:46.555Z,76.07
2023-05-15T20:49:37.424Z,76.29
2023-05-15T20:52:25.957Z,76.26
2023-05-15T20:54:57.382Z,76.47
2023-05-15T20:57:24.551Z,76.39
2023-05-15T20:59:51.440Z,76.11
2023-05-15T21:02:18.616Z,76.37
2023-05-15T21:04:54.041Z,76.32
2023-05-15T21:07:20.964Z,76.45
2023-05-15T21:09:52.113Z,76.63
2023-05-15T21:12:19.405Z,76.90
2023-05-15T21:14:46.410Z,76.83
2023-05-15T21:17:18.182Z,76.99
2023-05-15T21:19:49.100Z,77.03
2023-05-15T21:22:19.833Z,77.34
2023-05-15T21:24:48.271Z,77.42
2023-05-15T21:27:17.809Z,77.28
2023-05-15T21:29:47.759Z,77.06
2023-05-15T21:32:16.919Z,77.44
2023-05-15T21:34:43.841Z,77.49
2023-05-15T21:37:10.904Z,77.45
2023-05-15T21:39:38.117Z,77.78
2023-05-15T21:42:08.314Z,77.45
2023-05-15T21:44:35.273Z,77.65
2023-05-15T21:47:02.393Z,77.91
2023-05-15T21:49:29.289Z,77.84
2023-05-15T21:51:56.433Z,77.76
2023-05-15T21:54:23.393Z,78.12
2023-05-15T21:56:54.503Z,77.88
2023-05-15T21:59:21.830Z,77.86
2023-05-15T22:01:48.879Z,78.14
2023-05-15T22:04:25.034Z,78.06
2023-05-15T22:06:54.635Z,78.26
2023-05-15T22:09:21.750Z,78.58
2023-05-15T22:11:52.105Z,78.52
2023-05-15T22:14:19.107Z,78.38
2023-05-15T22:16:46.579Z,78.61
2023-05-15T22:19:31.689Z,78.52
2023-05-15T22:21:59.506Z,78.59
2023-05-15T22:24:26.665Z,78.64
2023-05-15T22:26:54.583Z,78.64
2023-05-15T22:29:22.148Z,78.64
2023-05-15T22:31:49.446Z,78.76
2023-05-15T22:34:16.870Z,78.63
2023-05-15T22:36:44.159Z,78.80
2023-05-15T22:39:11.938Z,78.46
2023-05-15T22:41:38.781Z,78.42
2023-05-15T22:44:05.701Z,78.06
2023-05-15T22:46:32.613Z,77.99
2023-05-15T22:49:00.543Z,78.18
2023-05-15T22:51:27.510Z,77.92
2023-05-15T22:53:54.400Z,78.00
2023-05-15T22:56:21.698Z,78.18
2023-05-15T22:58:48.973Z,77.87
2023-05-15T23:01:15.880Z,78.22
2023-05-15T23:03:43.441Z,78.10
2023-05-15T23:06:10.429Z,78.09
2023-05-15T23:08:37.461Z,78.08
2023-05-15T23:11:04.795Z,78.53
2023-05-15T23:13:31.901Z,78.32
2023-05-15T23:15:58.921Z,78.03
2023-05-15T23:18:26.027Z,78.32
2023-05-15T23:20:53.402Z,78.16
2023-05-15T23:23:20.252Z,78.28
2023-05-15T23:25:47.105Z,77.86
2023-05-15T23:28:13.902Z,77.91
2023-05-15T23:30:40.798Z,77.93
2023-05-15T23:33:07.735Z,78.26
2023-05-15T23:35:34.854Z,78.31
2023-05-15T23:38:01.785Z,78.39
2023-05-15T23:40:29.139Z,78.27
2023-05-15T23:42:58.852Z,78.39
2023-05-15T23:45:25.977Z,78.10
2023-05-15T23:47:53.209Z,78.30
2023-05-15T23:50:21.468Z,78.36
2023-05-15T23:52:48.308Z,78.64
2023-05-15T23:55:15.212Z,78.61
2023-05-15T23:57:42.316Z,78.47
